sensor_id;sensor_type;location;lat;lon;timestamp;pressure;altitude;pressure_sealevel;temperature;humidity
74218;BME280;62579;47.288;18.646;2023-01-16T00:00:15;99331.00;;;4.91;99.78
74218;BME280;62579;47.288;18.646;2023-01-16T00:02:41;99319.22;;;4.73;99.93
74218;BME280;62579;47.288;18.646;2023-01-16T00:05:06;99313.91;;;4.79;100.00
74218;BME280;62579;47.288;18.646;2023-01-16T00:07:32;99311.84;;;4.89;99.37
74218;BME280;62579;47.288;18.646;2023-01-16T00:09:57;99311.53;;;5.01;98.77
74218;BME280;62579;47.288;18.646;2023-01-16T00:12:23;99301.22;;;5.00;98.02
74218;BME280;62579;47.288;18.646;2023-01-16T00:14:48;99308.16;;;5.06;97.70
74218;BME280;62579;47.288;18.646;2023-01-16T00:17:13;99316.38;;;4.97;98.08
74218;BME280;62579;47.288;18.646;2023-01-16T00:19:39;99317.31;;;4.94;98.49
74218;BME280;62579;47.288;18.646;2023-01-16T00:22:04;99313.72;;;4.82;98.95
74218;BME280;62579;47.288;18.646;2023-01-16T00:24:29;99302.75;;;4.86;99.14
74218;BME280;62579;47.288;18.646;2023-01-16T00:26:55;99299.91;;;4.75;99.51
74218;BME280;62579;47.288;18.646;2023-01-16T00:29:20;99289.97;;;4.66;99.93
74218;BME280;62579;47.288;18.646;2023-01-16T00:31:46;99291.38;;;4.62;100.00
74218;BME280;62579;47.288;18.646;2023-01-16T00:34:11;99294.50;;;4.75;99.60
74218;BME280;62579;47.288;18.646;2023-01-16T00:36:36;99290.41;;;4.79;98.82
74218;BME280;62579;47.288;18.646;2023-01-16T00:39:04;99292.09;;;4.77;98.78
74218;BME280;62579;47.288;18.646;2023-01-16T00:41:29;99304.16;;;4.81;98.24
74218;BME280;62579;47.288;18.646;2023-01-16T00:43:54;99292.00;;;4.71;98.79
74218;BME280;62579;47.288;18.646;2023-01-16T00:46:24;99300.56;;;4.70;99.24
74218;BME280;62579;47.288;18.646;2023-01-16T00:48:49;99294.50;;;4.75;98.94
74218;BME280;62579;47.288;18.646;2023-01-16T00:51:15;99300.56;;;4.70;98.99
74218;BME280;62579;47.288;18.646;2023-01-16T00:53:40;99307.16;;;4.69;99.06
74218;BME280;62579;47.288;18.646;2023-01-16T00:56:06;99304.00;;;4.70;99.07
74218;BME280;62579;47.288;18.646;2023-01-16T00:58:31;99300.22;;;4.62;99.54
74218;BME280;62579;47.288;18.646;2023-01-16T01:00:57;99296.84;;;4.33;100.00
74218;BME280;62579;47.288;18.646;2023-01-16T01:03:22;99271.00;;;4.26;100.00
74218;BME280;62579;47.288;18.646;2023-01-16T01:05:48;99270.53;;;4.42;100.00
74218;BME280;62579;47.288;18.646;2023-01-16T01:08:13;99283.56;;;4.64;98.91
74218;BME280;62579;47.288;18.646;2023-01-16T01:10:39;99291.75;;;4.69;98.11
74218;BME280;62579;47.288;18.646;2023-01-16T01:13:05;99283.75;;;4.60;98.74
74218;BME280;62579;47.288;18.646;2023-01-16T01:15:31;99295.75;;;4.59;99.04
74218;BME280;62579;47.288;18.646;2023-01-16T01:17:56;99286.28;;;4.49;99.83
74218;BME280;62579;47.288;18.646;2023-01-16T01:20:23;99298.28;;;4.48;100.00
74218;BME280;62579;47.288;18.646;2023-01-16T01:22:48;99289.28;;;4.51;99.77
74218;BME280;62579;47.288;18.646;2023-01-16T01:25:14;99282.47;;;4.56;99.39
74218;BME280;62579;47.288;18.646;2023-01-16T01:27:39;99286.44;;;4.60;99.16
74218;BME280;62579;47.288;18.646;2023-01-16T01:30:05;99291.56;;;4.73;98.26
74218;BME280;62579;47.288;18.646;2023-01-16T01:32:30;99299.16;;;4.74;98.09
74218;BME280;62579;47.288;18.646;2023-01-16T01:34:56;99290.91;;;4.63;98.66
74218;BME280;62579;47.288;18.646;2023-01-16T01:37:21;99294.34;;;4.64;98.71
74218;BME280;62579;47.288;18.646;2023-01-16T01:39:46;99295.00;;;4.59;99.19
74218;BME280;62579;47.288;18.646;2023-01-16T01:42:12;99290.38;;;4.59;99.10
74218;BME280;62579;47.288;18.646;2023-01-16T01:47:27;99287.75;;;4.65;98.90
74218;BME280;62579;47.288;18.646;2023-01-16T01:49:56;99277.44;;;4.63;98.83
74218;BME280;62579;47.288;18.646;2023-01-16T01:52:24;99260.25;;;4.61;99.08
74218;BME280;62579;47.288;18.646;2023-01-16T01:54:55;99261.94;;;4.58;99.12
74218;BME280;62579;47.288;18.646;2023-01-16T01:57:33;99264.91;;;4.60;99.33
74218;BME280;62579;47.288;18.646;2023-01-16T02:00:02;99262.75;;;4.64;98.84
74218;BME280;62579;47.288;18.646;2023-01-16T02:02:34;99253.94;;;4.64;98.48
74218;BME280;62579;47.288;18.646;2023-01-16T02:05:03;99252.16;;;4.61;99.08
74218;BME280;62579;47.288;18.646;2023-01-16T02:07:29;99244.91;;;4.67;98.99
74218;BME280;62579;47.288;18.646;2023-01-16T02:10:09;99231.34;;;4.61;98.78
74218;BME280;62579;47.288;18.646;2023-01-16T02:12:37;99231.75;;;4.54;99.25
74218;BME280;62579;47.288;18.646;2023-01-16T02:15:02;99225.41;;;4.57;99.32
74218;BME280;62579;47.288;18.646;2023-01-16T02:17:28;99215.19;;;4.61;98.89
74218;BME280;62579;47.288;18.646;2023-01-16T02:20:19;99209.31;;;4.63;98.94
74218;BME280;62579;47.288;18.646;2023-01-16T02:25:48;99194.38;;;4.62;98.71
74218;BME280;62579;47.288;18.646;2023-01-16T02:28:39;99190.00;;;4.64;98.48
74218;BME280;62579;47.288;18.646;2023-01-16T02:33:48;99189.72;;;4.62;97.86
74218;BME280;62579;47.288;18.646;2023-01-16T02:36:38;99190.38;;;4.57;98.12
74218;BME280;62579;47.288;18.646;2023-01-16T02:41:50;99177.13;;;4.54;98.32
74218;BME280;62579;47.288;18.646;2023-01-16T02:44:32;99177.50;;;4.47;98.55
74218;BME280;62579;47.288;18.646;2023-01-16T02:50:10;99169.63;;;4.43;99.02
74218;BME280;62579;47.288;18.646;2023-01-16T02:53:15;99167.22;;;4.45;98.74
74218;BME280;62579;47.288;18.646;2023-01-16T02:58:09;99160.00;;;4.37;99.18
74218;BME280;62579;47.288;18.646;2023-01-16T03:00:36;99159.12;;;4.45;98.79
74218;BME280;62579;47.288;18.646;2023-01-16T03:03:03;99154.41;;;4.40;98.62
74218;BME280;62579;47.288;18.646;2023-01-16T03:05:38;99145.59;;;4.40;98.58
74218;BME280;62579;47.288;18.646;2023-01-16T03:08:36;99149.22;;;4.37;98.77
74218;BME280;62579;47.288;18.646;2023-01-16T03:11:17;99148.03;;;4.38;98.82
74218;BME280;62579;47.288;18.646;2023-01-16T03:17:00;99140.41;;;4.36;98.73
74218;BME280;62579;47.288;18.646;2023-01-16T03:19:53;99130.91;;;4.41;98.65
74218;BME280;62579;47.288;18.646;2023-01-16T03:22:29;99127.94;;;4.39;98.72
74218;BME280;62579;47.288;18.646;2023-01-16T03:25:19;99130.91;;;4.41;98.55
74218;BME280;62579;47.288;18.646;2023-01-16T03:28:06;99138.53;;;4.42;98.38
74218;BME280;62579;47.288;18.646;2023-01-16T03:30:48;99131.63;;;4.41;98.33
74218;BME280;62579;47.288;18.646;2023-01-16T03:33:45;99128.56;;;4.48;98.11
74218;BME280;62579;47.288;18.646;2023-01-16T03:36:38;99118.03;;;4.50;97.89
74218;BME280;62579;47.288;18.646;2023-01-16T03:39:08;99118.72;;;4.45;97.84
74218;BME280;62579;47.288;18.646;2023-01-16T03:41:38;99114.59;;;4.50;97.73
74218;BME280;62579;47.288;18.646;2023-01-16T03:44:13;99114.91;;;4.52;97.27
74218;BME280;62579;47.288;18.646;2023-01-16T03:46:47;99106.25;;;4.48;97.57
74218;BME280;62579;47.288;18.646;2023-01-16T03:49:18;99106.38;;;4.39;98.29
74218;BME280;62579;47.288;18.646;2023-01-16T03:51:51;99102.59;;;4.31;98.81
74218;BME280;62579;47.288;18.646;2023-01-16T03:54:22;99101.22;;;4.35;98.88
74218;BME280;62579;47.288;18.646;2023-01-16T03:59:31;99088.69;;;4.32;98.86
74218;BME280;62579;47.288;18.646;2023-01-16T04:02:00;99081.63;;;4.35;98.81
74218;BME280;62579;47.288;18.646;2023-01-16T04:04:59;99072.34;;;4.36;98.48
74218;BME280;62579;47.288;18.646;2023-01-16T04:07:39;99074.06;;;4.39;98.46
74218;BME280;62579;47.288;18.646;2023-01-16T04:10:26;99061.56;;;4.36;98.33
74218;BME280;62579;47.288;18.646;2023-01-16T04:12:54;99067.47;;;4.40;98.11
74218;BME280;62579;47.288;18.646;2023-01-16T04:15:21;99063.91;;;4.48;97.79
74218;BME280;62579;47.288;18.646;2023-01-16T04:17:48;99057.97;;;4.44;97.69
74218;BME280;62579;47.288;18.646;2023-01-16T04:20:14;99050.31;;;4.37;97.85
74218;BME280;62579;47.288;18.646;2023-01-16T04:22:41;99049.56;;;4.37;97.84
74218;BME280;62579;47.288;18.646;2023-01-16T04:25:07;99048.81;;;4.36;97.81
74218;BME280;62579;47.288;18.646;2023-01-16T04:27:34;99046.47;;;4.44;97.55
74218;BME280;62579;47.288;18.646;2023-01-16T04:30:00;99035.69;;;4.44;97.07
74218;BME280;62579;47.288;18.646;2023-01-16T04:32:25;99039.94;;;4.30;97.53
74218;BME280;62579;47.288;18.646;2023-01-16T04:34:50;99042.63;;;4.30;97.63
74218;BME280;62579;47.288;18.646;2023-01-16T04:37:17;99042.84;;;4.27;98.17
74218;BME280;62579;47.288;18.646;2023-01-16T04:39:43;99037.44;;;4.27;98.29
74218;BME280;62579;47.288;18.646;2023-01-16T04:42:09;99036.38;;;4.18;98.70
74218;BME280;62579;47.288;18.646;2023-01-16T04:44:34;99022.72;;;4.22;98.71
74218;BME280;62579;47.288;18.646;2023-01-16T04:47:00;99019.88;;;4.11;99.37
74218;BME280;62579;47.288;18.646;2023-01-16T04:49:25;99013.34;;;4.17;98.96
74218;BME280;62579;47.288;18.646;2023-01-16T04:51:50;99011.31;;;4.33;98.08
74218;BME280;62579;47.288;18.646;2023-01-16T04:54:17;99002.91;;;4.25;97.64
74218;BME280;62579;47.288;18.646;2023-01-16T04:56:44;99007.50;;;4.19;97.86
74218;BME280;62579;47.288;18.646;2023-01-16T04:59:09;99002.91;;;4.05;98.27
74218;BME280;62579;47.288;18.646;2023-01-16T05:01:35;98999.97;;;4.03;98.14
74218;BME280;62579;47.288;18.646;2023-01-16T05:04:03;99002.37;;;4.01;98.19
74218;BME280;62579;47.288;18.646;2023-01-16T05:06:29;98996.72;;;3.99;98.71
74218;BME280;62579;47.288;18.646;2023-01-16T05:08:55;99001.09;;;3.96;99.61
74218;BME280;62579;47.288;18.646;2023-01-16T05:11:20;98996.94;;;3.95;99.83
74218;BME280;62579;47.288;18.646;2023-01-16T05:13:45;99002.91;;;4.05;99.62
74218;BME280;62579;47.288;18.646;2023-01-16T05:16:11;98997.34;;;4.08;99.50
74218;BME280;62579;47.288;18.646;2023-01-16T05:18:36;98996.66;;;4.13;99.65
74218;BME280;62579;47.288;18.646;2023-01-16T05:21:01;98996.84;;;4.10;100.00
74218;BME280;62579;47.288;18.646;2023-01-16T05:23:27;99001.25;;;4.07;100.00
74218;BME280;62579;47.288;18.646;2023-01-16T05:25:52;98996.84;;;4.10;100.00
74218;BME280;62579;47.288;18.646;2023-01-16T05:28:19;98985.91;;;4.13;100.00
74218;BME280;62579;47.288;18.646;2023-01-16T05:30:47;98986.16;;;4.15;100.00
74218;BME280;62579;47.288;18.646;2023-01-16T05:33:12;98985.06;;;4.28;100.00
74218;BME280;62579;47.288;18.646;2023-01-16T05:35:38;98982.41;;;4.33;99.57
74218;BME280;62579;47.288;18.646;2023-01-16T05:38:03;98986.22;;;4.21;100.00
74218;BME280;62579;47.288;18.646;2023-01-16T05:40:29;98979.34;;;4.20;100.00
74218;BME280;62579;47.288;18.646;2023-01-16T05:42:54;98979.13;;;4.23;100.00
74218;BME280;62579;47.288;18.646;2023-01-16T05:45:20;98987.91;;;4.18;100.00
74218;BME280;62579;47.288;18.646;2023-01-16T05:47:45;98978.94;;;4.27;100.00
74218;BME280;62579;47.288;18.646;2023-01-16T05:50:10;98972.56;;;4.24;100.00
74218;BME280;62579;47.288;18.646;2023-01-16T05:52:36;98971.59;;;4.28;99.63
74218;BME280;62579;47.288;18.646;2023-01-16T05:55:01;98969.56;;;4.22;99.85
74218;BME280;62579;47.288;18.646;2023-01-16T05:57:26;98972.94;;;4.17;99.79
74218;BME280;62579;47.288;18.646;2023-01-16T05:59:52;98970.53;;;4.19;99.76
74218;BME280;62579;47.288;18.646;2023-01-16T06:02:19;98963.00;;;4.23;99.50
74218;BME280;62579;47.288;18.646;2023-01-16T06:04:44;98965.88;;;4.20;99.63
74218;BME280;62579;47.288;18.646;2023-01-16T06:07:11;98956.34;;;4.19;99.66
74218;BME280;62579;47.288;18.646;2023-01-16T06:09:36;98953.66;;;4.19;99.68
74218;BME280;62579;47.288;18.646;2023-01-16T06:12:02;98955.66;;;4.24;99.48
74218;BME280;62579;47.288;18.646;2023-01-16T06:14:27;98954.72;;;4.27;99.35
74218;BME280;62579;47.288;18.646;2023-01-16T06:16:53;98940.69;;;4.23;99.15
74218;BME280;62579;47.288;18.646;2023-01-16T06:19:18;98937.94;;;4.17;99.45
74218;BME280;62579;47.288;18.646;2023-01-16T06:21:43;98931.88;;;4.22;99.13
74218;BME280;62579;47.288;18.646;2023-01-16T06:24:09;98944.50;;;4.11;99.42
74218;BME280;62579;47.288;18.646;2023-01-16T06:26:34;98924.72;;;4.14;99.11
74218;BME280;62579;47.288;18.646;2023-01-16T06:29:00;98937.09;;;4.06;99.33
74218;BME280;62579;47.288;18.646;2023-01-16T06:31:25;98951.50;;;4.03;99.75
74218;BME280;62579;47.288;18.646;2023-01-16T06:33:51;98940.44;;;4.01;99.73
74218;BME280;62579;47.288;18.646;2023-01-16T06:36:16;98937.31;;;4.02;100.00
74218;BME280;62579;47.288;18.646;2023-01-16T06:38:41;98942.19;;;4.04;100.00
74218;BME280;62579;47.288;18.646;2023-01-16T06:41:07;98940.56;;;4.12;99.91
74218;BME280;62579;47.288;18.646;2023-01-16T06:43:32;98936.41;;;4.11;99.85
74218;BME280;62579;47.288;18.646;2023-01-16T06:45:58;98936.69;;;4.13;99.93
74218;BME280;62579;47.288;18.646;2023-01-16T06:48:23;98942.06;;;4.13;99.67
74218;BME280;62579;47.288;18.646;2023-01-16T06:50:49;98934.00;;;4.13;99.76
74218;BME280;62579;47.288;18.646;2023-01-16T06:53:14;98935.94;;;4.12;100.00
74218;BME280;62579;47.288;18.646;2023-01-16T06:55:40;98948.25;;;4.19;99.76
74218;BME280;62579;47.288;18.646;2023-01-16T06:58:06;98953.69;;;4.24;99.57
74218;BME280;62579;47.288;18.646;2023-01-16T07:00:32;98949.03;;;4.25;99.57
74218;BME280;62579;47.288;18.646;2023-01-16T07:02:59;98943.66;;;4.25;99.63
74218;BME280;62579;47.288;18.646;2023-01-16T07:05:26;98942.66;;;4.22;99.70
74218;BME280;62579;47.288;18.646;2023-01-16T07:07:52;98940.94;;;4.19;99.97
74218;BME280;62579;47.288;18.646;2023-01-16T07:10:18;98946.34;;;4.25;99.80
74218;BME280;62579;47.288;18.646;2023-01-16T07:12:47;98935.31;;;4.23;99.80
74218;BME280;62579;47.288;18.646;2023-01-16T07:15:13;98932.41;;;4.27;99.58
74218;BME280;62579;47.288;18.646;2023-01-16T07:17:58;98930.94;;;4.25;99.80
74218;BME280;62579;47.288;18.646;2023-01-16T07:20:47;98927.28;;;4.29;99.61
74218;BME280;62579;47.288;18.646;2023-01-16T07:23:34;98912.81;;;4.26;99.64
74218;BME280;62579;47.288;18.646;2023-01-16T07:26:02;98907.97;;;4.30;99.48
74218;BME280;62579;47.288;18.646;2023-01-16T07:28:29;98909.13;;;4.23;100.00
74218;BME280;62579;47.288;18.646;2023-01-16T07:30:55;98905.06;;;4.34;99.71
74218;BME280;62579;47.288;18.646;2023-01-16T07:33:22;98897.81;;;4.45;98.98
74218;BME280;62579;47.288;18.646;2023-01-16T07:35:48;98887.34;;;4.53;97.95
74218;BME280;62579;47.288;18.646;2023-01-16T07:38:13;98894.16;;;4.48;98.03
74218;BME280;62579;47.288;18.646;2023-01-16T07:40:39;98879.41;;;4.38;98.74
74218;BME280;62579;47.288;18.646;2023-01-16T07:43:04;98875.47;;;4.39;98.90
74218;BME280;62579;47.288;18.646;2023-01-16T07:45:30;98871.56;;;4.40;99.26
74218;BME280;62579;47.288;18.646;2023-01-16T07:47:55;98860.91;;;4.25;100.00
74218;BME280;62579;47.288;18.646;2023-01-16T07:50:20;98858.00;;;4.29;100.00
74218;BME280;62579;47.288;18.646;2023-01-16T07:52:46;98847.94;;;4.24;100.00
74218;BME280;62579;47.288;18.646;2023-01-16T07:55:12;98847.41;;;4.20;100.00
74218;BME280;62579;47.288;18.646;2023-01-16T07:57:39;98848.69;;;4.24;100.00
74218;BME280;62579;47.288;18.646;2023-01-16T08:00:06;98849.09;;;4.17;100.00
74218;BME280;62579;47.288;18.646;2023-01-16T08:02:32;98841.59;;;4.27;100.00
74218;BME280;62579;47.288;18.646;2023-01-16T08:04:57;98849.44;;;4.31;100.00
74218;BME280;62579;47.288;18.646;2023-01-16T08:07:22;98842.50;;;4.50;100.00
74218;BME280;62579;47.288;18.646;2023-01-16T08:09:48;98833.66;;;4.44;100.00
74218;BME280;62579;47.288;18.646;2023-01-16T08:12:13;98827.44;;;4.32;100.00
74218;BME280;62579;47.288;18.646;2023-01-16T08:14:38;98831.16;;;4.40;100.00
74218;BME280;62579;47.288;18.646;2023-01-16T08:17:04;98824.84;;;4.43;100.00
74218;BME280;62579;47.288;18.646;2023-01-16T08:19:30;98819.81;;;4.31;100.00
74218;BME280;62579;47.288;18.646;2023-01-16T08:21:56;98807.00;;;4.20;100.00
74218;BME280;62579;47.288;18.646;2023-01-16T08:24:21;98803.97;;;4.07;100.00
74218;BME280;62579;47.288;18.646;2023-01-16T08:26:48;98806.41;;;4.05;100.00
74218;BME280;62579;47.288;18.646;2023-01-16T08:29:13;98793.88;;;4.28;100.00
74218;BME280;62579;47.288;18.646;2023-01-16T08:31:39;98788.06;;;4.40;100.00
74218;BME280;62579;47.288;18.646;2023-01-16T08:34:04;98787.69;;;4.21;100.00
74218;BME280;62579;47.288;18.646;2023-01-16T08:36:30;98785.00;;;4.21;100.00
74218;BME280;62579;47.288;18.646;2023-01-16T08:38:55;98767.34;;;4.20;100.00
74218;BME280;62579;47.288;18.646;2023-01-16T08:41:20;98772.75;;;4.20;100.00
74218;BME280;62579;47.288;18.646;2023-01-16T08:44:05;98763.38;;;4.10;100.00
74218;BME280;62579;47.288;18.646;2023-01-16T08:46:56;98752.56;;;4.05;100.00
74218;BME280;62579;47.288;18.646;2023-01-16T08:49:41;98754.81;;;4.12;100.00
74218;BME280;62579;47.288;18.646;2023-01-16T08:52:25;98740.91;;;4.19;100.00
74218;BME280;62579;47.288;18.646;2023-01-16T08:54:52;98734.63;;;4.33;100.00
74218;BME280;62579;47.288;18.646;2023-01-16T08:57:18;98728.56;;;4.38;100.00
74218;BME280;62579;47.288;18.646;2023-01-16T08:59:43;98715.09;;;4.38;100.00
74218;BME280;62579;47.288;18.646;2023-01-16T09:02:10;98716.78;;;4.36;100.00
74218;BME280;62579;47.288;18.646;2023-01-16T09:04:36;98708.72;;;4.36;100.00
74218;BME280;62579;47.288;18.646;2023-01-16T09:07:01;98714.13;;;4.41;100.00
74218;BME280;62579;47.288;18.646;2023-01-16T09:09:26;98708.00;;;4.41;100.00
74218;BME280;62579;47.288;18.646;2023-01-16T09:11:54;98708.78;;;4.52;100.00
74218;BME280;62579;47.288;18.646;2023-01-16T09:14:39;98705.34;;;4.46;100.00
74218;BME280;62579;47.288;18.646;2023-01-16T09:17:04;98693.59;;;4.49;100.00
74218;BME280;62579;47.288;18.646;2023-01-16T09:19:32;98673.06;;;4.52;100.00
74218;BME280;62579;47.288;18.646;2023-01-16T09:21:57;98672.81;;;4.55;100.00
74218;BME280;62579;47.288;18.646;2023-01-16T09:24:22;98665.44;;;4.50;100.00
74218;BME280;62579;47.288;18.646;2023-01-16T09:26:48;98655.19;;;4.54;100.00
74218;BME280;62579;47.288;18.646;2023-01-16T09:29:13;98649.06;;;4.59;100.00
74218;BME280;62579;47.288;18.646;2023-01-16T09:31:38;98650.34;;;4.69;100.00
74218;BME280;62579;47.288;18.646;2023-01-16T09:34:04;98641.50;;;4.69;100.00
74218;BME280;62579;47.288;18.646;2023-01-16T09:36:29;98635.34;;;4.57;100.00
74218;BME280;62579;47.288;18.646;2023-01-16T09:38:54;98630.47;;;4.67;100.00
74218;BME280;62579;47.288;18.646;2023-01-16T09:41:20;98625.12;;;4.72;100.00
74218;BME280;62579;47.288;18.646;2023-01-16T09:44:08;98613.81;;;4.63;100.00
74218;BME280;62579;47.288;18.646;2023-01-16T09:46:44;98615.53;;;4.66;100.00
74218;BME280;62579;47.288;18.646;2023-01-16T09:49:31;98607.91;;;4.59;100.00
74218;BME280;62579;47.288;18.646;2023-01-16T09:52:08;98609.41;;;4.65;100.00
74218;BME280;62579;47.288;18.646;2023-01-16T09:54:58;98599.91;;;4.75;100.00
74218;BME280;62579;47.288;18.646;2023-01-16T09:57:46;98599.91;;;4.81;100.00
74218;BME280;62579;47.288;18.646;2023-01-16T10:00:34;98592.31;;;4.85;100.00
74218;BME280;62579;47.288;18.646;2023-01-16T10:03:00;98577.34;;;4.67;100.00
74218;BME280;62579;47.288;18.646;2023-01-16T10:05:52;98573.16;;;4.72;100.00
74218;BME280;62579;47.288;18.646;2023-01-16T10:13:57;98559.94;;;4.68;100.00
74218;BME280;62579;47.288;18.646;2023-01-16T10:19:19;98542.56;;;4.75;100.00
74218;BME280;62579;47.288;18.646;2023-01-16T10:22:17;98529.31;;;4.77;100.00
74218;BME280;62579;47.288;18.646;2023-01-16T10:27:19;98521.00;;;4.75;100.00
74218;BME280;62579;47.288;18.646;2023-01-16T10:29:52;98511.19;;;4.77;100.00
74218;BME280;62579;47.288;18.646;2023-01-16T10:35:02;98497.97;;;4.85;100.00
74218;BME280;62579;47.288;18.646;2023-01-16T10:37:31;98486.94;;;4.77;100.00
74218;BME280;62579;47.288;18.646;2023-01-16T10:39:58;98481.56;;;4.83;100.00
74218;BME280;62579;47.288;18.646;2023-01-16T10:42:31;98476.41;;;4.79;100.00
74218;BME280;62579;47.288;18.646;2023-01-16T10:45:29;98466.38;;;4.85;100.00
74218;BME280;62579;47.288;18.646;2023-01-16T10:48:15;98462.69;;;4.89;100.00
74218;BME280;62579;47.288;18.646;2023-01-16T10:51:00;98452.41;;;4.76;100.00
74218;BME280;62579;47.288;18.646;2023-01-16T10:53:26;98455.81;;;4.87;100.00
74218;BME280;62579;47.288;18.646;2023-01-16T10:55:52;98441.59;;;4.81;100.00
74218;BME280;62579;47.288;18.646;2023-01-16T10:58:30;98438.19;;;4.81;100.00
74218;BME280;62579;47.288;18.646;2023-01-16T11:00:59;98423.25;;;4.74;100.00
74218;BME280;62579;47.288;18.646;2023-01-16T11:03:41;98421.75;;;4.73;100.00
74218;BME280;62579;47.288;18.646;2023-01-16T11:06:11;98416.37;;;4.73;100.00
74218;BME280;62579;47.288;18.646;2023-01-16T11:08:37;98418.09;;;4.76;100.00
74218;BME280;62579;47.288;18.646;2023-01-16T11:11:04;98401.91;;;4.87;100.00
74218;BME280;62579;47.288;18.646;2023-01-16T11:13:30;98394.56;;;4.77;100.00
74218;BME280;62579;47.288;18.646;2023-01-16T11:16:21;98387.22;;;4.83;100.00
74218;BME280;62579;47.288;18.646;2023-01-16T11:21:42;98379.88;;;4.89;100.00
74218;BME280;62579;47.288;18.646;2023-01-16T11:24:18;98373.50;;;4.87;100.00
74218;BME280;62579;47.288;18.646;2023-01-16T11:26:51;98368.13;;;4.87;100.00
74218;BME280;62579;47.288;18.646;2023-01-16T11:29:20;98352.69;;;4.76;100.00
74218;BME280;62579;47.288;18.646;2023-01-16T11:31:59;98350.69;;;4.87;100.00
74218;BME280;62579;47.288;18.646;2023-01-16T11:34:28;98345.09;;;4.80;100.00
74218;BME280;62579;47.288;18.646;2023-01-16T11:37:00;98342.16;;;4.83;100.00
74218;BME280;62579;47.288;18.646;2023-01-16T11:39:29;98340.16;;;4.90;100.00
74218;BME280;62579;47.288;18.646;2023-01-16T11:41:58;98331.84;;;4.82;100.00
74218;BME280;62579;47.288;18.646;2023-01-16T11:47:26;98304.66;;;4.80;100.00
74218;BME280;62579;47.288;18.646;2023-01-16T11:49:53;98303.69;;;4.77;100.00
74218;BME280;62579;47.288;18.646;2023-01-16T11:52:23;98298.06;;;4.81;100.00
74218;BME280;62579;47.288;18.646;2023-01-16T11:55:01;98290.66;;;4.93;100.00
74218;BME280;62579;47.288;18.646;2023-01-16T12:06:04;98252.72;;;4.79;100.00
74218;BME280;62579;47.288;18.646;2023-01-16T12:11:15;98239.00;;;4.83;100.00
74218;BME280;62579;47.288;18.646;2023-01-16T12:19:50;98215.75;;;4.74;100.00
74218;BME280;62579;47.288;18.646;2023-01-16T12:25:04;98209.37;;;4.77;100.00
74218;BME280;62579;47.288;18.646;2023-01-16T12:27:40;98207.91;;;4.76;100.00
74218;BME280;62579;47.288;18.646;2023-01-16T12:35:30;98189.94;;;4.90;100.00
74218;BME280;62579;47.288;18.646;2023-01-16T12:38:17;98180.13;;;4.93;100.00
74218;BME280;62579;47.288;18.646;2023-01-16T12:43:28;98181.88;;;4.84;100.00
74218;BME280;62579;47.288;18.646;2023-01-16T12:45:59;98169.38;;;4.87;100.00
74218;BME280;62579;47.288;18.646;2023-01-16T12:59:22;98164.63;;;5.10;100.00
74218;BME280;62579;47.288;18.646;2023-01-16T13:01:53;98164.13;;;5.06;100.00
74218;BME280;62579;47.288;18.646;2023-01-16T13:04:26;98164.47;;;4.91;100.00
74218;BME280;62579;47.288;18.646;2023-01-16T13:06:58;98164.91;;;5.01;100.00
74218;BME280;62579;47.288;18.646;2023-01-16T13:12:43;98168.91;;;4.89;100.00
74218;BME280;62579;47.288;18.646;2023-01-16T13:15:35;98159.28;;;4.99;100.00
74218;BME280;62579;47.288;18.646;2023-01-16T13:18:27;98154.59;;;5.05;100.00
74218;BME280;62579;47.288;18.646;2023-01-16T13:20:59;98145.81;;;4.99;100.00
74218;BME280;62579;47.288;18.646;2023-01-16T13:23:33;98144.13;;;4.90;100.00
74218;BME280;62579;47.288;18.646;2023-01-16T13:26:08;98140.47;;;4.87;100.00
74218;BME280;62579;47.288;18.646;2023-01-16T13:29:13;98142.44;;;4.87;100.00
74218;BME280;62579;47.288;18.646;2023-01-16T13:31:51;98128.25;;;4.87;100.00
74218;BME280;62579;47.288;18.646;2023-01-16T13:34:35;98122.16;;;4.80;100.00
74218;BME280;62579;47.288;18.646;2023-01-16T13:42:30;98115.28;;;4.79;100.00
74218;BME280;62579;47.288;18.646;2023-01-16T13:45:05;98112.91;;;4.70;100.00
74218;BME280;62579;47.288;18.646;2023-01-16T13:47:50;98117.81;;;4.66;100.00
74218;BME280;62579;47.288;18.646;2023-01-16T13:50:27;98109.94;;;4.68;100.00
74218;BME280;62579;47.288;18.646;2023-01-16T13:53:12;98101.16;;;4.68;100.00
74218;BME280;62579;47.288;18.646;2023-01-16T13:55:39;98095.00;;;4.73;100.00
74218;BME280;62579;47.288;18.646;2023-01-16T13:58:13;98088.22;;;4.55;100.00
74218;BME280;62579;47.288;18.646;2023-01-16T14:00:40;98085.28;;;4.53;100.00
74218;BME280;62579;47.288;18.646;2023-01-16T14:03:18;98084.56;;;4.53;100.00
74218;BME280;62579;47.288;18.646;2023-01-16T14:05:49;98072.84;;;4.45;100.00
74218;BME280;62579;47.288;18.646;2023-01-16T14:08:45;98075.50;;;4.50;100.00
74218;BME280;62579;47.288;18.646;2023-01-16T14:17:06;98062.31;;;4.41;100.00
74218;BME280;62579;47.288;18.646;2023-01-16T14:22:20;98043.19;;;4.50;100.00
74218;BME280;62579;47.288;18.646;2023-01-16T14:24:50;98058.13;;;4.51;100.00
74218;BME280;62579;47.288;18.646;2023-01-16T14:27:20;98053.47;;;4.52;100.00
74218;BME280;62579;47.288;18.646;2023-01-16T14:29:57;98053.00;;;4.48;100.00
74218;BME280;62579;47.288;18.646;2023-01-16T14:32:26;98053.72;;;4.54;100.00
74218;BME280;62579;47.288;18.646;2023-01-16T14:34:59;98040.72;;;4.52;100.00
74218;BME280;62579;47.288;18.646;2023-01-16T14:37:36;98043.69;;;4.49;100.00
74218;BME280;62579;47.288;18.646;2023-01-16T14:42:53;98033.69;;;4.44;100.00
74218;BME280;62579;47.288;18.646;2023-01-16T14:55:56;98023.91;;;4.41;100.00
74218;BME280;62579;47.288;18.646;2023-01-16T14:58:34;98039.56;;;4.42;100.00
74218;BME280;62579;47.288;18.646;2023-01-16T15:01:02;98032.66;;;4.47;100.00
74218;BME280;62579;47.288;18.646;2023-01-16T15:03:57;98032.63;;;4.52;100.00